Time;durP1;ratioP1;P1;durP2;ratioP2;P2;SDS_P1;SDS_P2;PMS_P1;PMS_P2;Temp;Humidity;BMP_temperature;BMP_pressure;BME280_temperature;BME280_humidity;BME280_pressure;Samples;Min_cycle;Max_cycle;Signal;HPM_P1;HPM_P2
2024/01/21 00:00:39;;;;;;;;;;;11.60;39.30;;;11.78;41.82;101750.50;5032657;28;19965;-35
2024/01/21 00:03:07;;;;;;;;;;;11.60;39.30;;;11.76;42.28;101751.91;5031454;28;19926;-37
2024/01/21 00:05:35;;;;;;;;;;;11.60;39.30;;;11.75;42.00;101745.97;5032332;28;19952;-36
2024/01/21 00:08:03;;;;;;;;;;;11.60;39.30;;;11.76;42.81;101750.28;5032230;28;19979;-36
2024/01/21 00:10:31;;;;;;;;;;;11.60;39.30;;;11.74;42.36;101729.06;5032462;28;19931;-36
2024/01/21 00:12:59;;;;;;;;;;;11.60;39.30;;;11.77;42.67;101729.50;5031519;28;20012;-36
2024/01/21 00:15:27;;;;;;;;;;;11.60;39.30;;;11.78;42.28;101721.28;5032393;28;19926;-35
2024/01/21 00:17:56;;;;;;;;;;;11.60;39.30;;;11.75;42.13;101720.84;5031670;28;19933;-36
2024/01/21 00:20:24;;;;;;;;;;;11.60;39.40;;;11.75;42.16;101717.44;5032780;28;19925;-35
2024/01/21 00:22:52;;;;;;;;;;;11.60;39.30;;;11.76;42.20;101710.09;5035903;28;19964;-36
2024/01/21 00:25:20;;;;;;;;;;;11.60;39.20;;;11.76;42.12;101706.72;5036256;28;19925;-36
2024/01/21 00:27:48;;;;;;;;;;;11.60;39.20;;;11.77;41.91;101711.91;5036382;28;19991;-36
2024/01/21 00:30:16;;;;;;;;;;;11.60;39.30;;;11.79;42.15;101700.50;5036570;28;19929;-36
2024/01/21 00:32:44;;;;;;;;;;;11.60;39.20;;;11.76;42.33;101692.50;5035764;28;19929;-36
2024/01/21 00:35:13;;;;;;;;;;;11.60;39.20;;;11.78;42.16;101691.16;5036553;28;19947;-36
2024/01/21 00:37:41;;;;;;;;;;;11.60;39.10;;;11.78;42.65;101696.16;5036356;28;20108;-35
2024/01/21 00:40:09;;;;;;;;;;;11.60;39.10;;;11.76;42.37;101689.13;5036413;28;19925;-35
2024/01/21 00:42:37;;;;;;;;;;;11.60;39.10;;;11.78;41.86;101695.25;5035543;28;20359;-35
2024/01/21 00:45:06;;;;;;;;;;;11.60;39.00;;;11.81;42.19;101689.09;5036002;28;19979;-35
2024/01/21 00:47:34;;;;;;;;;;;11.60;39.00;;;11.81;41.54;101696.63;5036196;28;19925;-36
2024/01/21 00:50:03;;;;;;;;;;;11.60;39.00;;;11.75;42.34;101685.72;5036043;28;19932;-36
2024/01/21 00:52:32;;;;;;;;;;;11.60;39.70;;;11.80;41.83;101699.81;5035671;28;19929;-36
2024/01/21 00:55:00;;;;;;;;;;;11.60;39.00;;;11.80;41.97;101687.25;5036121;28;19925;-36
2024/01/21 00:57:28;;;;;;;;;;;11.60;39.10;;;11.81;41.88;101671.50;5035830;28;20415;-36
2024/01/21 00:59:56;;;;;;;;;;;11.60;39.00;;;11.77;42.02;101663.28;5035703;28;19925;-36
2024/01/21 01:02:24;;;;;;;;;;;11.60;39.10;;;11.81;41.87;101661.47;5035256;28;19972;-37
2024/01/21 01:04:51;;;;;;;;;;;11.60;39.10;;;11.79;41.89;101662.84;5035376;28;20124;-35
2024/01/21 01:07:19;;;;;;;;;;;11.60;39.10;;;11.79;41.45;101657.81;5035670;28;20014;-35
2024/01/21 01:09:49;;;;;;;;;;;11.60;39.00;;;11.78;41.95;101650.97;5035297;28;19936;-36
2024/01/21 01:12:17;;;;;;;;;;;11.60;39.00;;;11.80;41.75;101656.22;5035220;28;20346;-36
2024/01/21 01:14:45;;;;;;;;;;;11.60;39.00;;;11.78;42.42;101645.94;5035740;28;19953;-36
2024/01/21 01:17:13;;;;;;;;;;;11.60;38.90;;;11.82;41.84;101638.19;5047206;22;20278;-34
2024/01/21 01:19:41;;;;;;;;;;;11.60;38.90;;;11.81;41.49;101638.88;5021597;28;20273;-35
2024/01/21 01:22:12;;;;;;;;;;;11.60;38.90;;;11.79;41.39;101627.69;5014797;28;20359;-36
2024/01/21 01:24:41;;;;;;;;;;;11.60;39.00;;;11.82;41.27;101612.16;5015665;28;19980;-36
2024/01/21 01:27:11;;;;;;;;;;;11.70;39.00;;;11.81;41.35;101596.19;5015085;28;20384;-36
2024/01/21 01:29:39;;;;;;;;;;;11.60;38.90;;;11.81;41.87;101591.16;5015398;28;19950;-37
2024/01/21 01:32:07;;;;;;;;;;;11.70;39.00;;;11.79;41.35;101587.50;5015250;28;20388;-36
2024/01/21 01:34:35;;;;;;;;;;;11.70;38.90;;;11.79;42.27;101581.56;5016010;28;20018;-37
2024/01/21 01:37:04;;;;;;;;;;;11.70;39.00;;;11.83;41.71;101579.69;5016041;28;19932;-37
2024/01/21 01:39:32;;;;;;;;;;;11.70;39.00;;;11.83;41.84;101581.28;5015950;28;19926;-37
2024/01/21 01:42:00;;;;;;;;;;;11.60;38.80;;;11.83;42.06;101579.69;5015504;28;20540;-37
2024/01/21 01:44:30;;;;;;;;;;;11.70;38.90;;;11.83;42.00;101574.66;5015533;28;19925;-36
2024/01/21 01:46:57;;;;;;;;;;;11.70;38.90;;;11.82;41.89;101567.88;5015408;28;20383;-36
2024/01/21 01:49:25;;;;;;;;;;;11.70;38.90;;;11.80;41.54;101569.25;5015495;28;19973;-37
2024/01/21 01:51:54;;;;;;;;;;;11.60;38.80;;;11.76;41.67;101551.03;5014412;28;20004;-37
2024/01/21 01:54:22;;;;;;;;;;;11.60;38.80;;;11.83;41.69;101569.66;5014855;28;19932;-36
2024/01/21 01:56:50;;;;;;;;;;;11.70;39.60;;;11.81;41.98;101566.03;5014747;28;19933;-36
2024/01/21 01:59:19;;;;;;;;;;;11.60;38.80;;;11.80;41.45;101564.22;5014694;28;20412;-36
2024/01/21 02:01:48;;;;;;;;;;;11.60;38.80;;;11.83;41.65;101549.56;5019882;28;20028;-35
2024/01/21 02:04:16;;;;;;;;;;;11.60;38.80;;;11.84;42.21;101541.34;5022687;28;19925;-36
2024/01/21 02:06:44;;;;;;;;;;;11.70;39.00;;;10.66;41.85;101328.97;5021398;28;19972;-36
2024/01/21 02:09:12;;;;;;;;;;;11.70;38.90;;;11.81;42.26;101535.00;5022193;28;19934;-35
2024/01/21 02:11:40;;;;;;;;;;;11.60;38.80;;;11.79;41.97;101527.25;5019548;28;19926;-36
2024/01/21 02:14:08;;;;;;;;;;;11.60;38.80;;;11.81;41.60;101525.88;5022076;28;19975;-36
2024/01/21 02:16:36;;;;;;;;;;;11.60;38.80;;;11.81;41.43;101525.88;5020761;28;19925;-37
2024/01/21 02:19:11;;;;;;;;;;;11.60;38.80;;;11.80;41.83;101523.13;5019941;28;19987;-37
2024/01/21 02:21:39;;;;;;;;;;;11.60;38.90;;;11.82;41.62;101522.66;5014636;28;19972;-34
2024/01/21 02:24:08;;;;;;;;;;;11.60;38.80;;;11.82;41.86;101522.66;5014548;28;19960;-35
2024/01/21 02:26:36;;;;;;;;;;;11.60;38.80;;;11.80;41.99;101515.59;5014488;28;20372;-36
2024/01/21 02:29:04;;;;;;;;;;;11.70;38.90;;;11.81;41.80;101513.31;5014348;28;20008;-36
2024/01/21 02:31:32;;;;;;;;;;;11.70;38.90;;;11.80;41.95;101516.50;5013815;28;19925;-36
2024/01/21 02:34:00;;;;;;;;;;;11.60;38.80;;;11.83;42.15;101519.44;5013970;28;19926;-36
2024/01/21 02:36:28;;;;;;;;;;;11.60;38.90;;;11.83;41.71;101513.50;5014558;28;19926;-37
2024/01/21 02:38:56;;;;;;;;;;;11.70;38.90;;;11.82;41.89;101509.19;5013802;28;19926;-36
2024/01/21 02:41:26;;;;;;;;;;;11.70;38.90;;;11.83;41.79;101504.38;5013557;28;19925;-36
2024/01/21 02:43:54;;;;;;;;;;;11.70;38.90;;;11.86;41.85;101508.91;5013541;28;19926;-36
2024/01/21 02:46:22;;;;;;;;;;;11.70;38.90;;;11.82;41.66;101497.56;5013892;28;19925;-35
2024/01/21 02:48:49;;;;;;;;;;;11.70;38.90;;;11.84;41.31;101501.16;5013827;28;20024;-34
2024/01/21 02:51:17;;;;;;;;;;;11.70;38.90;;;11.85;42.11;101502.97;5005851;28;19933;-36
2024/01/21 02:53:45;;;;;;;;;;;11.70;38.90;;;11.85;41.96;101497.97;5013537;28;19925;-36
2024/01/21 02:56:20;;;;;;;;;;;11.70;38.80;;;11.86;41.41;101484.72;5013844;28;19951;-36
2024/01/21 02:58:50;;;;;;;;;;;11.70;38.80;;;11.83;41.36;101479.25;5013772;28;19965;-35
2024/01/21 03:01:18;;;;;;;;;;;11.70;38.90;;;11.85;41.91;101467.81;5005259;28;19925;-36
2024/01/21 03:03:46;;;;;;;;;;;11.70;38.90;;;11.85;41.58;101464.41;5013736;28;19925;-36
2024/01/21 03:06:14;;;;;;;;;;;11.70;38.80;;;11.85;41.49;101457.78;5013115;28;19948;-36
2024/01/21 03:08:42;;;;;;;;;;;11.70;38.90;;;11.84;41.63;101457.56;5013639;28;19975;-36
2024/01/21 03:11:10;;;;;;;;;;;11.70;38.80;;;11.82;41.94;101457.38;5013119;28;20364;-36
2024/01/21 03:13:38;;;;;;;;;;;11.70;38.90;;;11.82;41.65;101452.34;5013671;28;19929;-37
2024/01/21 03:16:07;;;;;;;;;;;11.70;38.80;;;11.81;41.88;101445.50;5013481;28;19932;-36
2024/01/21 03:18:38;;;;;;;;;;;11.70;38.90;;;11.84;41.64;101455.97;5018692;28;20304;-37
2024/01/21 03:21:06;;;;;;;;;;;11.70;38.90;;;11.81;41.53;101445.50;5012704;28;20389;-35
2024/01/21 03:23:35;;;;;;;;;;;11.70;38.80;;;11.83;41.68;101444.09;5013777;28;20015;-36
2024/01/21 03:26:03;;;;;;;;;;;11.70;38.80;;;11.83;41.37;101448.22;5013063;28;19926;-35
2024/01/21 03:28:30;;;;;;;;;;;11.60;38.70;;;11.84;42.01;101445.91;5013190;28;19975;-36
2024/01/21 03:30:58;;;;;;;;;;;11.70;38.90;;;11.82;42.32;101422.22;5013086;28;20374;-36
2024/01/21 03:33:28;;;;;;;;;;;11.70;38.90;;;11.81;42.25;101420.41;5012763;28;20020;-35
2024/01/21 03:35:56;;;;;;;;;;;11.70;38.90;;;11.81;41.78;101414.47;5013259;28;20402;-36
2024/01/21 03:38:24;;;;;;;;;;;11.70;38.80;;;11.77;41.48;101409.72;5013174;28;20300;-36
2024/01/21 03:40:52;;;;;;;;;;;11.60;38.70;;;11.84;41.61;101414.88;5013553;28;19932;-36
2024/01/21 03:43:20;;;;;;;;;;;11.60;38.70;;;11.84;41.97;101409.84;5005130;28;19925;-36
2024/01/21 03:45:48;;;;;;;;;;;11.60;38.70;;;11.82;41.62;101407.16;5013084;28;19926;-36
2024/01/21 03:48:16;;;;;;;;;;;11.60;38.70;;;11.81;41.74;101402.81;5014313;28;19925;-36
2024/01/21 03:50:45;;;;;;;;;;;11.70;38.80;;;11.81;41.97;101400.31;5013706;28;19971;-36
2024/01/21 03:53:13;;;;;;;;;;;11.60;38.70;;;11.80;41.68;101398.50;5013648;28;20347;-36
2024/01/21 03:55:41;;;;;;;;;;;11.70;38.80;;;11.75;41.55;101379.41;5012901;28;19926;-36
2024/01/21 03:58:09;;;;;;;;;;;11.70;38.80;;;11.81;40.98;101380.22;5012746;28;20020;-36
2024/01/21 04:00:37;;;;;;;;;;;11.60;38.70;;;11.79;42.06;101371.56;5012723;28;19972;-35
2024/01/21 04:03:05;;;;;;;;;;;11.60;38.70;;;11.82;41.26;101373.59;5012250;28;19925;-36
2024/01/21 04:05:33;;;;;;;;;;;11.60;38.80;;;11.80;41.11;101367.47;5013007;28;19972;-37
2024/01/21 04:08:05;;;;;;;;;;;11.60;38.80;;;11.79;42.06;101356.50;5012603;28;19976;-35
2024/01/21 04:10:33;;;;;;;;;;;11.60;38.80;;;11.79;41.43;101355.59;5012438;28;19932;-36
2024/01/21 04:13:01;;;;;;;;;;;11.60;38.70;;;11.70;41.79;101345.16;5011679;28;20026;-36
2024/01/21 04:15:29;;;;;;;;;;;11.60;38.60;;;11.79;41.50;101351.47;5012688;28;20020;-36
2024/01/21 04:17:57;;;;;;;;;;;11.60;38.70;;;11.78;41.07;101349.66;5018356;28;19931;-35
2024/01/21 04:20:25;;;;;;;;;;;11.60;38.50;;;11.77;41.82;101347.84;5012291;28;19925;-36
2024/01/21 04:22:53;;;;;;;;;;;11.60;38.40;;;11.74;41.37;101337.41;5011910;28;20032;-36
2024/01/21 04:25:22;;;;;;;;;;;11.60;38.40;;;11.74;41.06;101341.53;5012356;28;19926;-36
2024/01/21 04:27:50;;;;;;;;;;;11.60;38.40;;;11.73;41.84;101335.56;5012018;28;19980;-36
2024/01/21 04:30:18;;;;;;;;;;;11.60;38.40;;;11.74;40.65;101332.38;5012396;28;19925;-36
2024/01/21 04:32:46;;;;;;;;;;;11.60;38.20;;;11.72;41.38;101328.72;5011891;28;19926;-36
2024/01/21 04:35:14;;;;;;;;;;;11.60;38.30;;;11.70;41.00;101325.06;5012459;28;20443;-35
2024/01/21 04:37:42;;;;;;;;;;;11.60;38.30;;;11.71;41.87;101314.34;5012547;28;20012;-35
2024/01/21 04:40:12;;;;;;;;;;;11.60;38.50;;;11.74;41.49;101309.78;5012164;28;20028;-36
2024/01/21 04:42:41;;;;;;;;;;;11.60;38.40;;;11.76;41.07;101315.91;5012294;28;19935;-35
2024/01/21 04:45:10;;;;;;;;;;;11.60;38.40;;;11.74;40.88;101307.28;5013960;28;19936;-35
2024/01/21 04:47:39;;;;;;;;;;;11.60;38.40;;;11.75;41.38;101309.09;5015624;28;20024;-36
2024/01/21 04:50:07;;;;;;;;;;;11.60;38.60;;;11.73;41.15;101295.38;5013639;28;19929;-35
2024/01/21 04:52:35;;;;;;;;;;;11.60;38.50;;;11.77;41.10;101307.69;5012767;28;19929;-36
2024/01/21 04:55:04;;;;;;;;;;;11.60;38.50;;;11.73;41.81;101294.47;5013194;28;19932;-36
2024/01/21 04:57:32;;;;;;;;;;;11.60;38.50;;;11.73;40.92;101292.88;5015466;28;19949;-35
2024/01/21 05:00:01;;;;;;;;;;;11.60;38.50;;;11.72;40.94;101283.53;5014007;28;19933;-35
2024/01/21 05:02:29;;;;;;;;;;;11.60;38.50;;;11.75;41.46;101278.97;5013884;28;19929;-36
2024/01/21 05:04:57;;;;;;;;;;;11.60;38.60;;;11.74;41.63;101282.19;5015279;28;19925;-35
2024/01/21 05:07:25;;;;;;;;;;;11.60;38.50;;;11.68;41.60;101271.28;5006287;28;19925;-36
2024/01/21 05:09:56;;;;;;;;;;;11.60;38.40;;;11.70;41.32;101275.78;5016228;28;20016;-36
2024/01/21 05:12:24;;;;;;;;;;;11.60;38.40;;;11.70;41.17;101273.28;5015209;28;19932;-36
2024/01/21 05:14:52;;;;;;;;;;;11.60;38.30;;;11.72;41.55;101277.59;5015395;28;19933;-36
2024/01/21 05:17:21;;;;;;;;;;;11.60;38.40;;;11.70;41.16;101270.75;5016053;28;19996;-36
2024/01/21 05:19:49;;;;;;;;;;;11.60;38.30;;;11.74;41.19;101277.16;5019796;28;19936;-35
2024/01/21 05:22:17;;;;;;;;;;;11.60;38.30;;;11.75;41.23;101283.09;5014713;28;19987;-36
2024/01/21 05:24:45;;;;;;;;;;;11.60;38.30;;;11.77;40.80;101276.63;5015227;28;20020;-35
2024/01/21 05:27:14;;;;;;;;;;;11.60;38.30;;;11.73;41.34;101264.34;5014730;28;19932;-35
2024/01/21 05:29:42;;;;;;;;;;;11.60;38.90;;;11.73;41.61;101265.25;5015013;28;19933;-36
2024/01/21 05:32:12;;;;;;;;;;;11.60;38.30;;;11.75;41.71;101273.94;5014550;28;20377;-36
2024/01/21 05:34:41;;;;;;;;;;;11.60;38.30;;;11.75;40.96;101263.91;5015077;28;19973;-36
2024/01/21 05:37:09;;;;;;;;;;;11.60;38.20;;;11.76;41.39;101265.69;5014904;28;19936;-36
2024/01/21 05:39:38;;;;;;;;;;;11.60;38.10;;;11.72;40.84;101248.38;5014566;28;19972;-36
2024/01/21 05:42:07;;;;;;;;;;;11.60;38.10;;;11.75;41.23;101243.81;5014964;28;19926;-36
2024/01/21 05:44:35;;;;;;;;;;;11.60;38.00;;;11.75;40.92;101228.75;5014727;28;19933;-35
2024/01/21 05:47:04;;;;;;;;;;;11.60;37.80;;;11.70;40.79;101214.63;5014222;28;19975;-35
2024/01/21 05:49:33;;;;;;;;;;;11.60;37.70;;;11.73;40.67;101217.56;5015187;28;19957;-35
2024/01/21 05:52:02;;;;;;;;;;;11.60;37.70;;;11.71;40.52;101221.47;5015720;28;20001;-33
2024/01/21 05:54:30;;;;;;;;;;;11.60;37.60;;;11.74;40.47;101216.91;5015851;28;19936;-35
2024/01/21 05:57:01;;;;;;;;;;;11.60;37.60;;;11.76;40.51;101219.63;5016609;28;19925;-36
2024/01/21 05:59:29;;;;;;;;;;;11.60;37.50;;;11.74;40.60;101226.03;5008838;28;19972;-35
2024/01/21 06:01:57;;;;;;;;;;;11.60;37.60;;;11.75;40.71;101203.66;5014981;28;19932;-36
2024/01/21 06:04:25;;;;;;;;;;;11.60;37.50;;;11.75;40.54;101208.69;5014464;28;19925;-36
2024/01/21 06:06:53;;;;;;;;;;;11.60;37.40;;;11.76;40.61;101214.59;5014539;28;20008;-34
2024/01/21 06:09:23;;;;;;;;;;;11.60;37.30;;;11.75;40.92;101213.69;5014125;28;19991;-35
2024/01/21 06:11:50;;;;;;;;;;;11.60;37.40;;;11.72;40.36;101213.25;5013518;28;19929;-36
2024/01/21 06:14:18;;;;;;;;;;;11.60;37.40;;;11.70;40.36;101195.44;5014316;28;20007;-35
2024/01/21 06:16:46;;;;;;;;;;;11.50;37.30;;;11.71;40.29;101208.91;5014416;28;19925;-35
2024/01/21 06:19:14;;;;;;;;;;;11.60;37.40;;;11.73;39.81;101210.03;5019727;28;20451;-35
2024/01/21 06:21:43;;;;;;;;;;;11.60;37.40;;;11.71;40.17;101221.47;5013658;28;19925;-35
2024/01/21 06:24:11;;;;;;;;;;;11.60;37.20;;;11.70;40.24;101224.66;5013715;28;20000;-35
2024/01/21 06:26:41;;;;;;;;;;;11.60;37.20;;;11.72;39.98;101223.28;5014316;28;20346;-36
2024/01/21 06:29:09;;;;;;;;;;;11.60;37.20;;;11.75;40.34;101213.69;5013784;28;20397;-35
2024/01/21 06:31:37;;;;;;;;;;;11.60;37.10;;;11.78;40.18;101223.22;5013466;28;20380;-35
2024/01/21 06:34:05;;;;;;;;;;;11.60;36.70;;;11.73;39.16;101220.06;5013597;28;20390;-36
2024/01/21 06:36:33;;;;;;;;;;;11.50;36.40;;;11.70;40.15;101209.59;5014048;28;20377;-35
2024/01/21 06:39:01;;;;;;;;;;;11.50;36.50;;;11.71;39.63;101211.41;5013676;28;20385;-35
2024/01/21 06:41:29;;;;;;;;;;;11.50;36.50;;;11.70;39.87;101217.13;5005673;28;20293;-36
2024/01/21 06:43:59;;;;;;;;;;;11.50;36.60;;;11.75;39.72;101213.69;5014041;28;19971;-35
2024/01/21 06:46:27;;;;;;;;;;;11.60;36.70;;;11.72;39.42;101218.25;5013779;28;20342;-35
2024/01/21 06:48:55;;;;;;;;;;;11.50;36.50;;;11.74;39.16;101204.34;5013654;28;20029;-35
2024/01/21 06:51:31;;;;;;;;;;;11.60;36.50;;;11.73;39.86;101200.00;5012892;28;19972;-35
2024/01/21 06:54:00;;;;;;;;;;;11.60;36.70;;;11.67;39.66;101200.06;5013499;28;19926;-35
2024/01/21 06:56:28;;;;;;;;;;;11.60;36.70;;;11.70;39.34;101204.59;5013304;28;20321;-35
2024/01/21 06:58:56;;;;;;;;;;;11.60;36.70;;;11.80;39.25;101201.75;5013493;28;19956;-35
2024/01/21 07:01:25;;;;;;;;;;;11.60;36.70;;;11.77;39.50;101207.25;5012984;28;19968;-35
2024/01/21 07:03:53;;;;;;;;;;;11.60;36.60;;;11.72;39.15;101213.25;5013199;28;19926;-35
2024/01/21 07:06:22;;;;;;;;;;;11.60;36.60;;;11.70;39.64;101214.63;5013542;28;19929;-36
2024/01/21 07:08:50;;;;;;;;;;;11.60;36.60;;;11.73;39.15;101210.03;5013239;28;19932;-36
2024/01/21 07:11:18;;;;;;;;;;;11.60;36.60;;;11.69;39.71;101202.81;5012884;28;19988;-35
2024/01/21 07:13:46;;;;;;;;;;;11.60;36.60;;;11.75;39.62;101206.16;5013324;28;19964;-35
2024/01/21 07:16:14;;;;;;;;;;;11.60;36.70;;;11.72;39.66;101207.31;5013262;28;19926;-35
2024/01/21 07:21:11;;;;;;;;;;;11.60;36.80;;;11.77;39.87;101192.19;5027617;28;20384;-35
2024/01/21 07:23:39;;;;;;;;;;;11.60;36.80;;;11.74;39.32;101198.44;5032507;28;19929;-36
2024/01/21 07:26:08;;;;;;;;;;;11.60;36.70;;;11.72;39.52;101208.22;5032389;28;19931;-36
2024/01/21 07:28:36;;;;;;;;;;;11.60;36.60;;;11.73;39.52;101197.47;5032430;28;20104;-36
2024/01/21 07:31:04;;;;;;;;;;;11.60;36.70;;;11.70;39.28;101199.56;5031772;28;20015;-35
2024/01/21 07:33:32;;;;;;;;;;;11.50;36.40;;;11.71;39.62;101196.34;5024330;28;20358;-36
2024/01/21 07:36:03;;;;;;;;;;;11.60;36.50;;;11.71;39.27;101186.31;5032315;28;19929;-35
2024/01/21 07:38:32;;;;;;;;;;;11.60;36.50;;;11.72;39.67;101175.59;5032159;28;19925;-36
2024/01/21 07:41:00;;;;;;;;;;;11.60;36.70;;;11.70;39.90;101174.47;5032265;28;20024;-35
2024/01/21 07:43:28;;;;;;;;;;;11.50;36.50;;;11.72;39.50;101155.50;5031976;28;19925;-36
2024/01/21 07:45:56;;;;;;;;;;;11.60;36.50;;;11.69;39.65;101173.59;5032214;28;19926;-36
2024/01/21 07:48:24;;;;;;;;;;;11.60;36.50;;;11.69;39.87;101172.69;5032175;28;19929;-35
2024/01/21 07:50:52;;;;;;;;;;;11.50;36.30;;;11.68;39.07;101165.84;5032031;28;19925;-36
2024/01/21 07:53:20;;;;;;;;;;;11.50;36.30;;;11.72;39.98;101162.13;5031350;28;19975;-36
2024/01/21 07:55:49;;;;;;;;;;;11.50;36.40;;;11.72;39.72;101173.06;5031798;28;19925;-36
2024/01/21 07:58:19;;;;;;;;;;;11.50;36.30;;;11.69;39.32;101188.66;5031742;28;19971;-36
2024/01/21 08:00:47;;;;;;;;;;;11.50;36.30;;;11.67;39.54;101185.00;5032041;28;20028;-36
2024/01/21 08:03:17;;;;;;;;;;;11.50;36.40;;;11.74;39.35;101231.97;5031201;28;19929;-36
2024/01/21 08:05:45;;;;;;;;;;;11.60;36.40;;;11.73;39.54;101240.16;5031631;28;19929;-35
2024/01/21 08:08:13;;;;;;;;;;;11.60;36.60;;;11.75;39.23;101242.91;5031504;28;19979;-36
2024/01/21 08:10:41;;;;;;;;;;;11.60;36.60;;;11.76;39.56;101240.59;5032042;28;19929;-35
2024/01/21 08:13:10;;;;;;;;;;;11.60;36.70;;;11.76;39.52;101240.59;5031209;28;19931;-36
2024/01/21 08:15:38;;;;;;;;;;;11.60;36.70;;;11.74;39.67;101231.97;5031770;28;20281;-36
2024/01/21 08:18:06;;;;;;;;;;;11.60;36.60;;;11.75;39.82;101238.81;5031735;28;19926;-36
2024/01/21 08:20:34;;;;;;;;;;;11.60;36.70;;;11.72;39.55;101233.31;5028591;28;19932;-36
2024/01/21 08:23:02;;;;;;;;;;;11.60;36.60;;;11.74;39.43;101236.06;5030783;28;19932;-35
2024/01/21 08:25:30;;;;;;;;;;;11.60;36.70;;;11.73;39.67;101230.13;5031898;28;19963;-36
2024/01/21 08:27:58;;;;;;;;;;;11.60;36.70;;;11.76;39.64;101238.06;5032105;28;20024;-36
2024/01/21 08:30:27;;;;;;;;;;;11.60;36.70;;;11.75;39.76;101233.78;5031783;28;19925;-36
2024/01/21 08:32:55;;;;;;;;;;;11.60;36.50;;;11.75;40.18;101235.38;5031175;28;19936;-35
2024/01/21 08:35:24;;;;;;;;;;;11.60;36.60;;;11.76;39.14;101230.53;5031350;28;19929;-36
2024/01/21 08:37:52;;;;;;;;;;;11.60;36.60;;;11.78;39.44;101229.16;5031656;28;20027;-36
2024/01/21 08:40:19;;;;;;;;;;;11.60;36.50;;;11.77;39.98;101237.38;5031274;28;20388;-36
2024/01/21 08:42:47;;;;;;;;;;;11.60;36.60;;;11.78;39.31;101229.16;5033676;28;19929;-36
2024/01/21 08:45:16;;;;;;;;;;;11.60;36.60;;;11.78;39.29;101238.28;5035505;28;19929;-36
2024/01/21 08:47:45;;;;;;;;;;;11.60;36.40;;;11.76;39.72;101227.16;5035567;28;20342;-36
2024/01/21 08:50:13;;;;;;;;;;;11.60;36.40;;;11.78;39.83;101234.19;5034914;28;20003;-35
2024/01/21 08:52:41;;;;;;;;;;;11.60;36.50;;;11.78;39.10;101239.19;5035102;28;19932;-35
2024/01/21 08:55:09;;;;;;;;;;;11.60;36.60;;;11.80;39.68;101242.84;5035396;28;19931;-35
2024/01/21 08:57:37;;;;;;;;;;;11.60;36.50;;;11.78;39.01;101244.22;5035516;28;19925;-35
2024/01/21 09:00:08;;;;;;;;;;;11.60;36.50;;;11.76;39.01;101240.59;5035067;28;20339;-36
2024/01/21 09:02:38;;;;;;;;;;;11.60;36.40;;;11.76;40.12;101223.00;5034377;28;19929;-36
2024/01/21 09:05:08;;;;;;;;;;;11.60;36.60;;;11.77;40.00;101222.31;5035208;28;19935;-35
2024/01/21 09:07:36;;;;;;;;;;;11.60;36.50;;;11.75;39.69;101218.72;5035091;28;20466;-36
2024/01/21 09:10:05;;;;;;;;;;;11.60;36.40;;;11.77;39.14;101222.31;5034797;28;19926;-35
2024/01/21 09:12:33;;;;;;;;;;;11.60;36.50;;;11.78;39.86;101219.13;5034341;28;19932;-36
2024/01/21 09:15:01;;;;;;;;;;;11.60;36.30;;;11.74;39.46;101195.91;5034816;28;19925;-36
2024/01/21 09:17:29;;;;;;;;;;;11.60;36.50;;;11.76;39.92;101185.34;5034869;28;19936;-36
2024/01/21 09:19:57;;;;;;;;;;;11.60;36.60;;;11.75;39.31;101195.22;5037703;28;20384;-35
2024/01/21 09:22:26;;;;;;;;;;;11.60;36.50;;;11.78;39.32;101216.59;5034474;28;19925;-36
2024/01/21 09:24:54;;;;;;;;;;;11.60;36.40;;;11.77;39.00;101227.34;5035517;28;20011;-35
2024/01/21 09:27:23;;;;;;;;;;;11.60;36.40;;;11.77;39.58;101232.34;5034958;28;20375;-35
2024/01/21 09:29:51;;;;;;;;;;;11.60;36.50;;;11.77;39.68;101247.41;5034591;28;19933;-35
2024/01/21 09:32:19;;;;;;;;;;;11.60;36.40;;;11.74;39.58;101243.63;5034161;28;19931;-36
2024/01/21 09:34:47;;;;;;;;;;;11.60;36.40;;;11.78;39.31;101264.31;5034589;28;20399;-36
2024/01/21 09:37:15;;;;;;;;;;;11.60;36.50;;;11.75;39.73;101263.91;5035102;28;19975;-36
2024/01/21 09:39:44;;;;;;;;;;;11.60;36.40;;;11.75;39.55;101273.94;5034556;28;19931;-36
2024/01/21 09:42:16;;;;;;;;;;;11.60;36.70;;;11.78;39.83;101289.41;5033841;28;19929;-36
2024/01/21 09:44:45;;;;;;;;;;;11.60;36.60;;;11.76;39.58;101305.88;5034443;28;19925;-36
2024/01/21 09:47:13;;;;;;;;;;;11.60;36.60;;;11.76;39.61;101303.34;5034891;28;20007;-36
2024/01/21 09:49:41;;;;;;;;;;;11.60;36.60;;;11.77;39.40;101312.69;5026868;28;19925;-36
2024/01/21 09:52:09;;;;;;;;;;;11.60;36.60;;;11.74;39.51;101302.25;5033643;28;20389;-36
2024/01/21 09:54:37;;;;;;;;;;;11.60;36.50;;;11.76;39.61;101300.84;5032617;28;19955;-37
2024/01/21 09:57:07;;;;;;;;;;;11.60;36.60;;;11.78;39.27;101304.47;5034457;28;19925;-37
2024/01/21 09:59:35;;;;;;;;;;;11.60;36.50;;;11.75;39.55;101299.06;5034302;28;20096;-37
2024/01/21 10:02:03;;;;;;;;;;;11.60;36.70;;;11.75;39.62;101298.16;5033542;28;20012;-37
2024/01/21 10:04:32;;;;;;;;;;;11.60;36.70;;;11.75;39.58;101299.06;5033907;28;19929;-37
2024/01/21 10:07:00;;;;;;;;;;;11.60;36.60;;;11.78;40.07;101286.91;5034003;28;19973;-37
2024/01/21 10:09:29;;;;;;;;;;;11.60;36.60;;;11.78;39.60;101279.38;5034038;28;19963;-36
2024/01/21 10:11:59;;;;;;;;;;;11.60;36.40;;;11.75;39.34;101278.97;5033505;28;19972;-36
2024/01/21 10:14:28;;;;;;;;;;;11.60;36.40;;;11.73;38.83;101275.31;5033864;28;19925;-36
2024/01/21 10:16:56;;;;;;;;;;;11.60;36.40;;;11.73;39.71;101259.34;5033885;28;20008;-36
2024/01/21 10:19:27;;;;;;;;;;;11.60;36.40;;;11.79;38.96;101256.06;5037200;28;20004;-36
2024/01/21 10:22:07;;;;;;;;;;;11.60;36.30;;;11.80;39.12;101252.88;5032881;28;20422;-36
2024/01/21 10:24:37;;;;;;;;;;;11.70;36.30;;;11.83;39.09;101243.22;5033560;28;20534;-36
2024/01/21 10:27:06;;;;;;;;;;;11.60;36.40;;;11.77;39.43;101254.97;5033878;28;19947;-36
2024/01/21 10:29:38;;;;;;;;;;;11.60;36.80;;;11.75;39.76;101253.88;5033436;28;19931;-37
2024/01/21 10:32:07;;;;;;;;;;;11.60;36.40;;;11.78;39.09;101254.25;5032970;28;19971;-36
2024/01/21 10:34:35;;;;;;;;;;;11.60;36.50;;;11.77;39.89;101262.50;5033299;28;20020;-37
2024/01/21 10:37:04;;;;;;;;;;;11.60;36.50;;;11.73;39.16;101250.19;5033475;28;20343;-36
2024/01/21 10:39:32;;;;;;;;;;;11.60;36.30;;;11.69;39.41;101258.03;5033383;28;19976;-36
2024/01/21 10:42:00;;;;;;;;;;;11.50;36.40;;;11.66;39.43;101242.53;5032780;28;19948;-37
2024/01/21 10:44:28;;;;;;;;;;;11.50;36.50;;;11.68;39.11;101251.19;5033047;28;19975;-37
2024/01/21 10:46:58;;;;;;;;;;;11.50;36.50;;;11.66;39.57;101257.59;5033338;28;20012;-37
2024/01/21 10:49:25;;;;;;;;;;;11.50;36.60;;;11.63;39.27;101257.19;5033114;28;20015;-36
2024/01/21 10:51:54;;;;;;;;;;;11.50;36.60;;;11.61;39.85;101253.56;5032658;28;20012;-36
2024/01/21 10:54:22;;;;;;;;;;;11.40;36.60;;;11.59;39.37;101255.88;5033015;28;19931;-36
2024/01/21 10:56:50;;;;;;;;;;;11.50;36.70;;;11.65;39.38;101255.78;5033127;28;19929;-36
2024/01/21 10:59:18;;;;;;;;;;;11.50;36.60;;;11.65;39.24;101250.75;5032603;28;20357;-37
2024/01/21 11:01:46;;;;;;;;;;;11.50;36.60;;;11.67;39.41;101244.34;5032495;28;20027;-36
2024/01/21 11:04:16;;;;;;;;;;;11.50;36.70;;;11.65;39.72;101226.56;5032678;28;20012;-36
2024/01/21 11:06:48;;;;;;;;;;;11.50;36.70;;;11.70;39.20;101225.56;5024927;28;20015;-36
2024/01/21 11:09:17;;;;;;;;;;;11.50;36.60;;;11.71;39.26;101216.44;5032796;28;20388;-36
2024/01/21 11:11:48;;;;;;;;;;;11.50;36.40;;;11.73;39.51;101215.06;5023987;28;20373;-37
2024/01/21 11:14:29;;;;;;;;;;;11.50;36.50;;;11.69;39.47;101227.91;5033016;28;19969;-36
2024/01/21 11:16:57;;;;;;;;;;;11.50;36.50;;;11.72;39.84;101229.91;5033050;28;19925;-36